Heron Bay, Alabama
Current Conditions -  °F | °C
As of 9:53 AM on Friday 31 Oct 2014 (Local Time) from KBFM Reporting Station
Clear Clear  
Wind Chill: 66°   Ceiling: Unl
Heat Index: 66°   Visibility: 10mi
Dew Point: 45°   Wind: 3mph
Humidity: 47%   Direction: 350°N
Pressure: 30.04"   Gusts: NA
Location:  30.4032°N, 88.1801°W
Report Text: KBFM 311453Z 35003KT 10SM CLR 19/07 A3004 RMK AO2 SLP173 T01890072 50005
Loading
Personal Weather Stations






























Interactive Weather Map
Tropical Storm Tracking
New forecast layout! Learn more

10-Day Weather Forecast

Advertisements
Track Severe Weather on mobile